sensor_id;sensor_type;location;lat;lon;timestamp;P1;durP1;ratioP1;P2;durP2;ratioP2
51384;SDS011;37478;55.682;37.462;2023-04-24T00:00:25;14.82;;;7.95;;
51384;SDS011;37478;55.682;37.462;2023-04-24T00:02:50;15.55;;;7.47;;
51384;SDS011;37478;55.682;37.462;2023-04-24T00:05:16;12.45;;;7.28;;
51384;SDS011;37478;55.682;37.462;2023-04-24T00:07:42;13.77;;;6.55;;
51384;SDS011;37478;55.682;37.462;2023-04-24T00:10:07;13.10;;;6.65;;
51384;SDS011;37478;55.682;37.462;2023-04-24T00:12:33;12.13;;;7.00;;
51384;SDS011;37478;55.682;37.462;2023-04-24T00:14:59;14.15;;;7.30;;
51384;SDS011;37478;55.682;37.462;2023-04-24T00:17:24;14.80;;;7.90;;
51384;SDS011;37478;55.682;37.462;2023-04-24T00:19:49;13.18;;;7.47;;
51384;SDS011;37478;55.682;37.462;2023-04-24T00:22:23;14.25;;;8.07;;
51384;SDS011;37478;55.682;37.462;2023-04-24T00:24:48;13.10;;;6.72;;
51384;SDS011;37478;55.682;37.462;2023-04-24T00:27:14;13.02;;;7.40;;
51384;SDS011;37478;55.682;37.462;2023-04-24T00:29:39;14.27;;;8.32;;
51384;SDS011;37478;55.682;37.462;2023-04-24T00:32:04;11.15;;;6.35;;
51384;SDS011;37478;55.682;37.462;2023-04-24T00:34:30;13.23;;;8.13;;
51384;SDS011;37478;55.682;37.462;2023-04-24T00:36:57;9.05;;;6.25;;
51384;SDS011;37478;55.682;37.462;2023-04-24T00:39:22;15.63;;;8.18;;
51384;SDS011;37478;55.682;37.462;2023-04-24T00:41:48;11.30;;;6.80;;
51384;SDS011;37478;55.682;37.462;2023-04-24T00:44:13;15.52;;;7.22;;
51384;SDS011;37478;55.682;37.462;2023-04-24T00:46:39;14.25;;;7.30;;
51384;SDS011;37478;55.682;37.462;2023-04-24T00:49:04;19.33;;;7.57;;
51384;SDS011;37478;55.682;37.462;2023-04-24T00:51:30;10.73;;;7.15;;
51384;SDS011;37478;55.682;37.462;2023-04-24T00:53:57;13.55;;;7.18;;
51384;SDS011;37478;55.682;37.462;2023-04-24T00:56:26;12.95;;;6.97;;
51384;SDS011;37478;55.682;37.462;2023-04-24T00:58:51;12.77;;;7.75;;
51384;SDS011;37478;55.682;37.462;2023-04-24T01:01:18;11.27;;;6.97;;
51384;SDS011;37478;55.682;37.462;2023-04-24T01:03:45;12.60;;;7.97;;
51384;SDS011;37478;55.682;37.462;2023-04-24T01:06:10;12.63;;;8.35;;
51384;SDS011;37478;55.682;37.462;2023-04-24T01:08:37;10.63;;;7.47;;
51384;SDS011;37478;55.682;37.462;2023-04-24T01:11:03;14.02;;;8.38;;
51384;SDS011;37478;55.682;37.462;2023-04-24T01:13:29;16.25;;;8.55;;
51384;SDS011;37478;55.682;37.462;2023-04-24T01:15:54;17.42;;;8.20;;
51384;SDS011;37478;55.682;37.462;2023-04-24T01:18:19;9.95;;;7.25;;
51384;SDS011;37478;55.682;37.462;2023-04-24T01:20:46;17.70;;;8.90;;
51384;SDS011;37478;55.682;37.462;2023-04-24T01:23:11;12.38;;;7.68;;
51384;SDS011;37478;55.682;37.462;2023-04-24T01:25:37;11.18;;;7.80;;
51384;SDS011;37478;55.682;37.462;2023-04-24T01:28:02;15.02;;;8.13;;
51384;SDS011;37478;55.682;37.462;2023-04-24T01:30:28;14.55;;;8.20;;
51384;SDS011;37478;55.682;37.462;2023-04-24T01:32:54;13.75;;;8.25;;
51384;SDS011;37478;55.682;37.462;2023-04-24T01:35:20;12.02;;;7.60;;
51384;SDS011;37478;55.682;37.462;2023-04-24T01:37:45;18.58;;;7.70;;
51384;SDS011;37478;55.682;37.462;2023-04-24T01:40:11;14.52;;;8.70;;
51384;SDS011;37478;55.682;37.462;2023-04-24T01:42:37;11.95;;;8.25;;
51384;SDS011;37478;55.682;37.462;2023-04-24T01:45:03;13.15;;;8.07;;
51384;SDS011;37478;55.682;37.462;2023-04-24T01:47:29;12.63;;;7.80;;
51384;SDS011;37478;55.682;37.462;2023-04-24T01:49:55;13.50;;;7.85;;
51384;SDS011;37478;55.682;37.462;2023-04-24T01:52:20;13.75;;;8.38;;
51384;SDS011;37478;55.682;37.462;2023-04-24T01:54:46;12.95;;;8.82;;
51384;SDS011;37478;55.682;37.462;2023-04-24T01:57:11;10.48;;;7.63;;
51384;SDS011;37478;55.682;37.462;2023-04-24T01:59:37;15.25;;;8.45;;
51384;SDS011;37478;55.682;37.462;2023-04-24T02:02:02;12.30;;;7.85;;
51384;SDS011;37478;55.682;37.462;2023-04-24T02:04:28;14.50;;;8.65;;
51384;SDS011;37478;55.682;37.462;2023-04-24T02:06:53;14.27;;;9.30;;
51384;SDS011;37478;55.682;37.462;2023-04-24T02:09:19;13.82;;;8.45;;
51384;SDS011;37478;55.682;37.462;2023-04-24T02:11:44;13.60;;;8.85;;
51384;SDS011;37478;55.682;37.462;2023-04-24T02:14:09;13.63;;;8.82;;
51384;SDS011;37478;55.682;37.462;2023-04-24T02:16:35;13.85;;;8.52;;
51384;SDS011;37478;55.682;37.462;2023-04-24T02:19:01;15.35;;;8.15;;
51384;SDS011;37478;55.682;37.462;2023-04-24T02:21:26;17.95;;;8.38;;
51384;SDS011;37478;55.682;37.462;2023-04-24T02:23:52;15.38;;;8.02;;
51384;SDS011;37478;55.682;37.462;2023-04-24T02:26:17;11.55;;;7.65;;
51384;SDS011;37478;55.682;37.462;2023-04-24T02:28:43;15.60;;;8.55;;
51384;SDS011;37478;55.682;37.462;2023-04-24T02:31:08;13.18;;;8.73;;
51384;SDS011;37478;55.682;37.462;2023-04-24T02:33:34;16.67;;;8.75;;
51384;SDS011;37478;55.682;37.462;2023-04-24T02:36:00;12.60;;;8.20;;
51384;SDS011;37478;55.682;37.462;2023-04-24T02:38:25;11.55;;;7.72;;
51384;SDS011;37478;55.682;37.462;2023-04-24T02:40:51;17.08;;;8.73;;
51384;SDS011;37478;55.682;37.462;2023-04-24T02:43:16;11.82;;;7.53;;
51384;SDS011;37478;55.682;37.462;2023-04-24T02:45:41;15.05;;;9.02;;
51384;SDS011;37478;55.682;37.462;2023-04-24T02:48:07;13.77;;;7.78;;
51384;SDS011;37478;55.682;37.462;2023-04-24T02:50:32;13.10;;;8.43;;
51384;SDS011;37478;55.682;37.462;2023-04-24T02:52:58;13.50;;;7.97;;
51384;SDS011;37478;55.682;37.462;2023-04-24T02:55:23;15.27;;;7.80;;
51384;SDS011;37478;55.682;37.462;2023-04-24T02:57:50;18.88;;;8.75;;
51384;SDS011;37478;55.682;37.462;2023-04-24T03:00:15;15.88;;;7.97;;
51384;SDS011;37478;55.682;37.462;2023-04-24T03:02:40;14.40;;;8.07;;
51384;SDS011;37478;55.682;37.462;2023-04-24T03:05:06;11.88;;;8.02;;
51384;SDS011;37478;55.682;37.462;2023-04-24T03:07:32;12.02;;;7.72;;
51384;SDS011;37478;55.682;37.462;2023-04-24T03:09:57;13.82;;;8.32;;
51384;SDS011;37478;55.682;37.462;2023-04-24T03:12:23;12.10;;;8.15;;
51384;SDS011;37478;55.682;37.462;2023-04-24T03:14:49;12.02;;;9.05;;
51384;SDS011;37478;55.682;37.462;2023-04-24T03:17:14;15.27;;;8.27;;
51384;SDS011;37478;55.682;37.462;2023-04-24T03:19:39;12.43;;;7.97;;
51384;SDS011;37478;55.682;37.462;2023-04-24T03:22:04;12.02;;;7.78;;
51384;SDS011;37478;55.682;37.462;2023-04-24T03:24:30;12.23;;;7.70;;
51384;SDS011;37478;55.682;37.462;2023-04-24T03:26:55;15.98;;;9.00;;
51384;SDS011;37478;55.682;37.462;2023-04-24T03:29:22;15.43;;;8.10;;
51384;SDS011;37478;55.682;37.462;2023-04-24T03:31:47;14.43;;;7.45;;
51384;SDS011;37478;55.682;37.462;2023-04-24T03:34:12;16.77;;;9.63;;
51384;SDS011;37478;55.682;37.462;2023-04-24T03:36:38;12.93;;;8.85;;
51384;SDS011;37478;55.682;37.462;2023-04-24T03:39:03;15.10;;;8.20;;
51384;SDS011;37478;55.682;37.462;2023-04-24T03:41:28;16.13;;;7.70;;
51384;SDS011;37478;55.682;37.462;2023-04-24T03:43:55;13.73;;;8.38;;
51384;SDS011;37478;55.682;37.462;2023-04-24T03:46:20;12.75;;;8.50;;
51384;SDS011;37478;55.682;37.462;2023-04-24T03:48:46;15.27;;;9.30;;
51384;SDS011;37478;55.682;37.462;2023-04-24T03:51:11;14.05;;;8.95;;
51384;SDS011;37478;55.682;37.462;2023-04-24T03:53:37;15.60;;;9.25;;
51384;SDS011;37478;55.682;37.462;2023-04-24T03:56:08;13.43;;;7.45;;
51384;SDS011;37478;55.682;37.462;2023-04-24T03:58:33;18.27;;;7.47;;
51384;SDS011;37478;55.682;37.462;2023-04-24T04:00:58;18.05;;;8.10;;
51384;SDS011;37478;55.682;37.462;2023-04-24T04:03:24;11.40;;;8.20;;
51384;SDS011;37478;55.682;37.462;2023-04-24T04:05:50;14.85;;;8.55;;
51384;SDS011;37478;55.682;37.462;2023-04-24T04:08:15;14.65;;;8.27;;
51384;SDS011;37478;55.682;37.462;2023-04-24T04:10:40;14.40;;;8.70;;
51384;SDS011;37478;55.682;37.462;2023-04-24T04:13:06;11.80;;;8.10;;
51384;SDS011;37478;55.682;37.462;2023-04-24T04:15:31;14.60;;;8.35;;
51384;SDS011;37478;55.682;37.462;2023-04-24T04:17:56;12.32;;;8.38;;
51384;SDS011;37478;55.682;37.462;2023-04-24T04:20:22;10.43;;;7.30;;
51384;SDS011;37478;55.682;37.462;2023-04-24T04:22:47;12.82;;;8.15;;
51384;SDS011;37478;55.682;37.462;2023-04-24T04:25:12;19.85;;;8.43;;
51384;SDS011;37478;55.682;37.462;2023-04-24T04:27:38;12.25;;;7.78;;
51384;SDS011;37478;55.682;37.462;2023-04-24T04:30:04;15.55;;;8.98;;
51384;SDS011;37478;55.682;37.462;2023-04-24T04:32:33;19.05;;;8.95;;
51384;SDS011;37478;55.682;37.462;2023-04-24T04:34:58;11.65;;;7.53;;
51384;SDS011;37478;55.682;37.462;2023-04-24T04:37:28;13.63;;;8.68;;
51384;SDS011;37478;55.682;37.462;2023-04-24T04:39:53;13.27;;;8.55;;
51384;SDS011;37478;55.682;37.462;2023-04-24T04:42:19;12.82;;;8.02;;
51384;SDS011;37478;55.682;37.462;2023-04-24T04:44:45;10.40;;;8.13;;
51384;SDS011;37478;55.682;37.462;2023-04-24T04:47:10;15.15;;;8.15;;
51384;SDS011;37478;55.682;37.462;2023-04-24T04:49:35;16.27;;;8.80;;
51384;SDS011;37478;55.682;37.462;2023-04-24T04:52:01;21.25;;;7.40;;
51384;SDS011;37478;55.682;37.462;2023-04-24T04:54:27;15.15;;;7.93;;
51384;SDS011;37478;55.682;37.462;2023-04-24T04:56:52;10.82;;;7.55;;
51384;SDS011;37478;55.682;37.462;2023-04-24T04:59:17;17.35;;;10.70;;
51384;SDS011;37478;55.682;37.462;2023-04-24T05:01:43;16.92;;;7.80;;
51384;SDS011;37478;55.682;37.462;2023-04-24T05:04:08;16.02;;;7.95;;
51384;SDS011;37478;55.682;37.462;2023-04-24T05:06:33;25.88;;;9.38;;
51384;SDS011;37478;55.682;37.462;2023-04-24T05:08:59;20.35;;;7.97;;
51384;SDS011;37478;55.682;37.462;2023-04-24T05:11:24;18.15;;;7.50;;
51384;SDS011;37478;55.682;37.462;2023-04-24T05:13:49;14.68;;;7.95;;
51384;SDS011;37478;55.682;37.462;2023-04-24T05:16:14;10.38;;;6.75;;
51384;SDS011;37478;55.682;37.462;2023-04-24T05:18:40;12.18;;;7.22;;
51384;SDS011;37478;55.682;37.462;2023-04-24T05:21:05;14.02;;;7.65;;
51384;SDS011;37478;55.682;37.462;2023-04-24T05:23:31;14.25;;;7.20;;
51384;SDS011;37478;55.682;37.462;2023-04-24T05:25:56;12.60;;;7.88;;
51384;SDS011;37478;55.682;37.462;2023-04-24T05:28:22;12.93;;;8.00;;
51384;SDS011;37478;55.682;37.462;2023-04-24T05:30:47;11.73;;;7.32;;
51384;SDS011;37478;55.682;37.462;2023-04-24T05:33:12;12.23;;;7.18;;
51384;SDS011;37478;55.682;37.462;2023-04-24T05:35:39;13.55;;;7.70;;
51384;SDS011;37478;55.682;37.462;2023-04-24T05:38:05;12.90;;;6.68;;
51384;SDS011;37478;55.682;37.462;2023-04-24T05:40:30;11.65;;;6.65;;
51384;SDS011;37478;55.682;37.462;2023-04-24T05:42:55;13.10;;;6.85;;
51384;SDS011;37478;55.682;37.462;2023-04-24T05:45:21;13.68;;;6.75;;
51384;SDS011;37478;55.682;37.462;2023-04-24T05:47:46;12.95;;;8.00;;
51384;SDS011;37478;55.682;37.462;2023-04-24T05:50:11;12.85;;;6.78;;
51384;SDS011;37478;55.682;37.462;2023-04-24T05:52:37;11.38;;;7.13;;
51384;SDS011;37478;55.682;37.462;2023-04-24T05:55:02;13.13;;;6.97;;
51384;SDS011;37478;55.682;37.462;2023-04-24T05:57:28;17.83;;;7.13;;
51384;SDS011;37478;55.682;37.462;2023-04-24T05:59:53;11.95;;;7.55;;
51384;SDS011;37478;55.682;37.462;2023-04-24T06:02:18;12.07;;;7.45;;
51384;SDS011;37478;55.682;37.462;2023-04-24T06:04:44;12.52;;;7.85;;
51384;SDS011;37478;55.682;37.462;2023-04-24T06:07:16;14.98;;;7.03;;
51384;SDS011;37478;55.682;37.462;2023-04-24T06:09:41;15.20;;;7.10;;
51384;SDS011;37478;55.682;37.462;2023-04-24T06:12:06;16.63;;;7.35;;
51384;SDS011;37478;55.682;37.462;2023-04-24T06:14:33;14.43;;;6.97;;
51384;SDS011;37478;55.682;37.462;2023-04-24T06:16:58;13.55;;;7.20;;
51384;SDS011;37478;55.682;37.462;2023-04-24T06:19:23;14.13;;;7.75;;
51384;SDS011;37478;55.682;37.462;2023-04-24T06:21:49;11.27;;;6.78;;
51384;SDS011;37478;55.682;37.462;2023-04-24T06:24:14;11.45;;;6.63;;
51384;SDS011;37478;55.682;37.462;2023-04-24T06:26:41;11.70;;;6.93;;
51384;SDS011;37478;55.682;37.462;2023-04-24T06:29:06;13.52;;;6.95;;
51384;SDS011;37478;55.682;37.462;2023-04-24T06:31:32;12.90;;;6.82;;
51384;SDS011;37478;55.682;37.462;2023-04-24T06:34:02;10.73;;;6.97;;
51384;SDS011;37478;55.682;37.462;2023-04-24T06:36:27;12.77;;;7.63;;
51384;SDS011;37478;55.682;37.462;2023-04-24T06:38:52;11.50;;;6.80;;
51384;SDS011;37478;55.682;37.462;2023-04-24T06:41:18;13.15;;;7.55;;
51384;SDS011;37478;55.682;37.462;2023-04-24T06:43:44;14.98;;;7.35;;
51384;SDS011;37478;55.682;37.462;2023-04-24T06:46:09;11.57;;;6.03;;
51384;SDS011;37478;55.682;37.462;2023-04-24T06:48:35;11.35;;;6.60;;
51384;SDS011;37478;55.682;37.462;2023-04-24T06:51:00;15.02;;;5.85;;
51384;SDS011;37478;55.682;37.462;2023-04-24T06:53:25;12.05;;;6.85;;
51384;SDS011;37478;55.682;37.462;2023-04-24T06:55:51;13.65;;;6.85;;
51384;SDS011;37478;55.682;37.462;2023-04-24T06:58:16;19.67;;;7.70;;
51384;SDS011;37478;55.682;37.462;2023-04-24T07:00:41;12.82;;;6.50;;
51384;SDS011;37478;55.682;37.462;2023-04-24T07:03:07;11.32;;;6.93;;
51384;SDS011;37478;55.682;37.462;2023-04-24T07:05:32;12.77;;;6.80;;
51384;SDS011;37478;55.682;37.462;2023-04-24T07:07:59;15.10;;;6.45;;
51384;SDS011;37478;55.682;37.462;2023-04-24T07:10:24;11.98;;;6.55;;
51384;SDS011;37478;55.682;37.462;2023-04-24T07:12:52;13.18;;;7.25;;
51384;SDS011;37478;55.682;37.462;2023-04-24T07:15:17;11.55;;;6.10;;
51384;SDS011;37478;55.682;37.462;2023-04-24T07:17:42;14.55;;;6.53;;
51384;SDS011;37478;55.682;37.462;2023-04-24T07:20:10;8.95;;;6.30;;
51384;SDS011;37478;55.682;37.462;2023-04-24T07:22:35;17.20;;;6.38;;
51384;SDS011;37478;55.682;37.462;2023-04-24T07:25:01;8.98;;;5.80;;
51384;SDS011;37478;55.682;37.462;2023-04-24T07:27:27;12.90;;;6.10;;
51384;SDS011;37478;55.682;37.462;2023-04-24T07:29:52;15.00;;;6.57;;
51384;SDS011;37478;55.682;37.462;2023-04-24T07:32:18;10.88;;;5.45;;
51384;SDS011;37478;55.682;37.462;2023-04-24T07:34:43;8.88;;;5.55;;
51384;SDS011;37478;55.682;37.462;2023-04-24T07:37:08;8.00;;;5.45;;
51384;SDS011;37478;55.682;37.462;2023-04-24T07:39:33;9.23;;;5.93;;
51384;SDS011;37478;55.682;37.462;2023-04-24T07:41:59;9.73;;;5.35;;
51384;SDS011;37478;55.682;37.462;2023-04-24T07:44:24;9.70;;;5.18;;
51384;SDS011;37478;55.682;37.462;2023-04-24T07:46:50;9.75;;;4.65;;
51384;SDS011;37478;55.682;37.462;2023-04-24T07:49:15;9.25;;;5.78;;
51384;SDS011;37478;55.682;37.462;2023-04-24T07:51:40;6.93;;;4.75;;
51384;SDS011;37478;55.682;37.462;2023-04-24T07:54:06;10.57;;;5.22;;
51384;SDS011;37478;55.682;37.462;2023-04-24T07:56:31;9.43;;;5.03;;
51384;SDS011;37478;55.682;37.462;2023-04-24T07:58:57;8.88;;;5.53;;
51384;SDS011;37478;55.682;37.462;2023-04-24T08:01:22;12.55;;;5.68;;
51384;SDS011;37478;55.682;37.462;2023-04-24T08:03:47;9.38;;;5.35;;
51384;SDS011;37478;55.682;37.462;2023-04-24T08:06:13;9.10;;;5.13;;
51384;SDS011;37478;55.682;37.462;2023-04-24T08:08:38;9.93;;;5.75;;
51384;SDS011;37478;55.682;37.462;2023-04-24T08:11:03;10.45;;;4.65;;
51384;SDS011;37478;55.682;37.462;2023-04-24T08:13:29;7.57;;;4.57;;
51384;SDS011;37478;55.682;37.462;2023-04-24T08:15:54;7.40;;;4.80;;
51384;SDS011;37478;55.682;37.462;2023-04-24T08:18:20;7.50;;;4.75;;
51384;SDS011;37478;55.682;37.462;2023-04-24T08:20:45;7.85;;;4.80;;
51384;SDS011;37478;55.682;37.462;2023-04-24T08:23:10;6.35;;;4.97;;
51384;SDS011;37478;55.682;37.462;2023-04-24T08:25:35;9.50;;;5.60;;
51384;SDS011;37478;55.682;37.462;2023-04-24T08:28:05;6.03;;;4.35;;
51384;SDS011;37478;55.682;37.462;2023-04-24T08:30:30;8.98;;;4.97;;
51384;SDS011;37478;55.682;37.462;2023-04-24T08:32:56;7.35;;;4.63;;
51384;SDS011;37478;55.682;37.462;2023-04-24T08:35:21;9.23;;;5.72;;
51384;SDS011;37478;55.682;37.462;2023-04-24T08:37:47;11.18;;;5.65;;
51384;SDS011;37478;55.682;37.462;2023-04-24T08:40:13;6.88;;;4.70;;
51384;SDS011;37478;55.682;37.462;2023-04-24T08:42:41;7.18;;;4.25;;
51384;SDS011;37478;55.682;37.462;2023-04-24T08:45:07;5.40;;;4.18;;
51384;SDS011;37478;55.682;37.462;2023-04-24T08:47:32;7.90;;;4.50;;
51384;SDS011;37478;55.682;37.462;2023-04-24T08:49:58;6.65;;;4.53;;
51384;SDS011;37478;55.682;37.462;2023-04-24T08:52:25;6.93;;;5.13;;
51384;SDS011;37478;55.682;37.462;2023-04-24T08:54:50;8.40;;;4.50;;
51384;SDS011;37478;55.682;37.462;2023-04-24T08:57:17;9.07;;;5.05;;
51384;SDS011;37478;55.682;37.462;2023-04-24T08:59:42;6.43;;;4.18;;
51384;SDS011;37478;55.682;37.462;2023-04-24T09:02:14;7.20;;;4.90;;
51384;SDS011;37478;55.682;37.462;2023-04-24T09:04:40;5.88;;;4.57;;
51384;SDS011;37478;55.682;37.462;2023-04-24T09:07:06;9.13;;;4.78;;
51384;SDS011;37478;55.682;37.462;2023-04-24T09:09:32;6.35;;;4.57;;
51384;SDS011;37478;55.682;37.462;2023-04-24T09:11:57;7.60;;;4.50;;
51384;SDS011;37478;55.682;37.462;2023-04-24T09:14:23;6.93;;;4.93;;
51384;SDS011;37478;55.682;37.462;2023-04-24T09:16:49;10.30;;;5.25;;
51384;SDS011;37478;55.682;37.462;2023-04-24T09:19:14;7.35;;;5.18;;
51384;SDS011;37478;55.682;37.462;2023-04-24T09:21:39;10.82;;;4.72;;
51384;SDS011;37478;55.682;37.462;2023-04-24T09:24:07;7.15;;;4.40;;
51384;SDS011;37478;55.682;37.462;2023-04-24T09:26:34;7.43;;;5.20;;
51384;SDS011;37478;55.682;37.462;2023-04-24T09:29:00;6.57;;;4.57;;
51384;SDS011;37478;55.682;37.462;2023-04-24T09:31:26;9.82;;;4.78;;
51384;SDS011;37478;55.682;37.462;2023-04-24T09:33:55;6.68;;;4.55;;
51384;SDS011;37478;55.682;37.462;2023-04-24T09:36:31;7.43;;;4.47;;
51384;SDS011;37478;55.682;37.462;2023-04-24T09:39:02;6.63;;;4.53;;
51384;SDS011;37478;55.682;37.462;2023-04-24T09:41:28;8.23;;;4.43;;
51384;SDS011;37478;55.682;37.462;2023-04-24T09:43:56;7.72;;;4.43;;
51384;SDS011;37478;55.682;37.462;2023-04-24T09:46:29;5.97;;;4.45;;
51384;SDS011;37478;55.682;37.462;2023-04-24T09:48:54;11.48;;;4.85;;
51384;SDS011;37478;55.682;37.462;2023-04-24T09:51:20;6.60;;;4.35;;
51384;SDS011;37478;55.682;37.462;2023-04-24T09:53:57;10.05;;;4.43;;
51384;SDS011;37478;55.682;37.462;2023-04-24T09:56:23;5.22;;;4.03;;
51384;SDS011;37478;55.682;37.462;2023-04-24T09:58:50;6.07;;;4.35;;
51384;SDS011;37478;55.682;37.462;2023-04-24T10:01:16;5.30;;;3.78;;
51384;SDS011;37478;55.682;37.462;2023-04-24T10:03:41;7.00;;;3.83;;
51384;SDS011;37478;55.682;37.462;2023-04-24T10:06:07;6.43;;;5.03;;
51384;SDS011;37478;55.682;37.462;2023-04-24T10:08:35;9.02;;;4.75;;
51384;SDS011;37478;55.682;37.462;2023-04-24T10:11:01;6.43;;;4.22;;
51384;SDS011;37478;55.682;37.462;2023-04-24T10:13:27;6.72;;;4.35;;
51384;SDS011;37478;55.682;37.462;2023-04-24T10:15:52;6.90;;;4.22;;
51384;SDS011;37478;55.682;37.462;2023-04-24T10:18:18;8.43;;;4.30;;
51384;SDS011;37478;55.682;37.462;2023-04-24T10:20:46;9.43;;;4.20;;
51384;SDS011;37478;55.682;37.462;2023-04-24T10:23:11;7.28;;;4.70;;
51384;SDS011;37478;55.682;37.462;2023-04-24T10:25:37;11.90;;;4.45;;
51384;SDS011;37478;55.682;37.462;2023-04-24T10:28:02;8.25;;;4.32;;
51384;SDS011;37478;55.682;37.462;2023-04-24T10:30:30;5.43;;;3.95;;
51384;SDS011;37478;55.682;37.462;2023-04-24T10:32:55;8.07;;;4.40;;
51384;SDS011;37478;55.682;37.462;2023-04-24T10:35:21;7.75;;;4.13;;
51384;SDS011;37478;55.682;37.462;2023-04-24T10:37:50;6.45;;;4.20;;
51384;SDS011;37478;55.682;37.462;2023-04-24T10:40:17;6.40;;;4.53;;
51384;SDS011;37478;55.682;37.462;2023-04-24T10:42:43;6.30;;;4.28;;
51384;SDS011;37478;55.682;37.462;2023-04-24T10:45:21;5.70;;;4.15;;
51384;SDS011;37478;55.682;37.462;2023-04-24T10:47:57;8.85;;;4.03;;
51384;SDS011;37478;55.682;37.462;2023-04-24T10:50:23;6.25;;;4.40;;
51384;SDS011;37478;55.682;37.462;2023-04-24T10:52:49;5.55;;;4.13;;
51384;SDS011;37478;55.682;37.462;2023-04-24T10:58:03;9.73;;;5.50;;
51384;SDS011;37478;55.682;37.462;2023-04-24T11:00:29;8.77;;;3.90;;
51384;SDS011;37478;55.682;37.462;2023-04-24T11:02:54;6.80;;;4.40;;
51384;SDS011;37478;55.682;37.462;2023-04-24T11:05:21;10.88;;;5.60;;
51384;SDS011;37478;55.682;37.462;2023-04-24T11:10:30;6.60;;;4.30;;
51384;SDS011;37478;55.682;37.462;2023-04-24T11:12:55;7.47;;;5.10;;
51384;SDS011;37478;55.682;37.462;2023-04-24T11:15:21;6.55;;;4.10;;
51384;SDS011;37478;55.682;37.462;2023-04-24T11:17:46;6.57;;;4.05;;
51384;SDS011;37478;55.682;37.462;2023-04-24T11:20:16;12.13;;;3.97;;
51384;SDS011;37478;55.682;37.462;2023-04-24T11:22:41;5.82;;;4.40;;
51384;SDS011;37478;55.682;37.462;2023-04-24T11:25:07;7.95;;;4.03;;
51384;SDS011;37478;55.682;37.462;2023-04-24T11:27:40;8.00;;;4.63;;
51384;SDS011;37478;55.682;37.462;2023-04-24T11:30:06;6.18;;;4.03;;
51384;SDS011;37478;55.682;37.462;2023-04-24T11:34:58;7.75;;;4.20;;
51384;SDS011;37478;55.682;37.462;2023-04-24T11:37:33;6.57;;;4.40;;
51384;SDS011;37478;55.682;37.462;2023-04-24T11:39:58;5.45;;;4.13;;
51384;SDS011;37478;55.682;37.462;2023-04-24T11:42:24;8.65;;;4.65;;
51384;SDS011;37478;55.682;37.462;2023-04-24T11:44:51;6.07;;;4.13;;
51384;SDS011;37478;55.682;37.462;2023-04-24T11:47:17;8.25;;;4.70;;
51384;SDS011;37478;55.682;37.462;2023-04-24T11:49:42;6.07;;;3.58;;
51384;SDS011;37478;55.682;37.462;2023-04-24T11:52:08;7.32;;;4.97;;
51384;SDS011;37478;55.682;37.462;2023-04-24T11:54:33;7.25;;;3.88;;
51384;SDS011;37478;55.682;37.462;2023-04-24T11:56:58;8.80;;;4.63;;
51384;SDS011;37478;55.682;37.462;2023-04-24T11:59:24;7.50;;;3.92;;
51384;SDS011;37478;55.682;37.462;2023-04-24T12:01:50;4.90;;;3.83;;
51384;SDS011;37478;55.682;37.462;2023-04-24T12:04:16;13.13;;;4.78;;
51384;SDS011;37478;55.682;37.462;2023-04-24T12:09:26;6.07;;;4.40;;
51384;SDS011;37478;55.682;37.462;2023-04-24T12:11:55;8.27;;;4.55;;
51384;SDS011;37478;55.682;37.462;2023-04-24T12:14:23;7.75;;;4.30;;
51384;SDS011;37478;55.682;37.462;2023-04-24T12:16:49;9.30;;;3.67;;
51384;SDS011;37478;55.682;37.462;2023-04-24T12:19:21;4.70;;;3.80;;
51384;SDS011;37478;55.682;37.462;2023-04-24T12:22:00;7.80;;;4.05;;
51384;SDS011;37478;55.682;37.462;2023-04-24T12:24:25;7.88;;;3.67;;
51384;SDS011;37478;55.682;37.462;2023-04-24T12:26:50;9.50;;;3.90;;
51384;SDS011;37478;55.682;37.462;2023-04-24T12:29:19;5.43;;;3.92;;
51384;SDS011;37478;55.682;37.462;2023-04-24T12:31:45;4.80;;;3.35;;
51384;SDS011;37478;55.682;37.462;2023-04-24T12:34:23;7.80;;;4.30;;
51384;SDS011;37478;55.682;37.462;2023-04-24T12:36:50;6.10;;;4.28;;
51384;SDS011;37478;55.682;37.462;2023-04-24T12:39:16;5.38;;;3.67;;
51384;SDS011;37478;55.682;37.462;2023-04-24T12:41:57;6.13;;;3.50;;
51384;SDS011;37478;55.682;37.462;2023-04-24T12:44:32;7.03;;;4.72;;
51384;SDS011;37478;55.682;37.462;2023-04-24T12:46:59;7.32;;;3.70;;
51384;SDS011;37478;55.682;37.462;2023-04-24T12:49:25;7.28;;;4.05;;
51384;SDS011;37478;55.682;37.462;2023-04-24T12:51:50;6.28;;;3.75;;
51384;SDS011;37478;55.682;37.462;2023-04-24T12:54:15;8.50;;;4.00;;
51384;SDS011;37478;55.682;37.462;2023-04-24T12:56:40;6.28;;;3.47;;
51384;SDS011;37478;55.682;37.462;2023-04-24T12:59:06;7.65;;;4.00;;
51384;SDS011;37478;55.682;37.462;2023-04-24T13:01:31;8.27;;;4.20;;
51384;SDS011;37478;55.682;37.462;2023-04-24T13:03:56;8.63;;;4.20;;
51384;SDS011;37478;55.682;37.462;2023-04-24T13:06:22;5.82;;;3.70;;
51384;SDS011;37478;55.682;37.462;2023-04-24T13:08:47;6.47;;;3.78;;
51384;SDS011;37478;55.682;37.462;2023-04-24T13:11:13;4.53;;;3.78;;
51384;SDS011;37478;55.682;37.462;2023-04-24T13:13:39;8.35;;;3.95;;
51384;SDS011;37478;55.682;37.462;2023-04-24T13:16:04;5.30;;;3.85;;
51384;SDS011;37478;55.682;37.462;2023-04-24T13:18:30;5.35;;;3.60;;
51384;SDS011;37478;55.682;37.462;2023-04-24T13:20:55;6.18;;;3.63;;
51384;SDS011;37478;55.682;37.462;2023-04-24T13:23:21;11.27;;;4.28;;
51384;SDS011;37478;55.682;37.462;2023-04-24T13:25:47;6.15;;;3.40;;
51384;SDS011;37478;55.682;37.462;2023-04-24T13:28:13;7.32;;;3.80;;
51384;SDS011;37478;55.682;37.462;2023-04-24T13:30:38;4.88;;;3.92;;
51384;SDS011;37478;55.682;37.462;2023-04-24T13:33:03;6.68;;;3.90;;
51384;SDS011;37478;55.682;37.462;2023-04-24T13:35:29;8.32;;;3.80;;
51384;SDS011;37478;55.682;37.462;2023-04-24T13:37:54;6.18;;;3.95;;
51384;SDS011;37478;55.682;37.462;2023-04-24T13:40:20;8.63;;;3.70;;
51384;SDS011;37478;55.682;37.462;2023-04-24T13:42:45;6.53;;;3.58;;
51384;SDS011;37478;55.682;37.462;2023-04-24T13:45:10;5.43;;;3.50;;
51384;SDS011;37478;55.682;37.462;2023-04-24T13:47:36;4.82;;;3.80;;
51384;SDS011;37478;55.682;37.462;2023-04-24T13:50:01;6.30;;;3.83;;
51384;SDS011;37478;55.682;37.462;2023-04-24T13:52:27;12.65;;;3.72;;
51384;SDS011;37478;55.682;37.462;2023-04-24T13:54:52;5.68;;;3.75;;
51384;SDS011;37478;55.682;37.462;2023-04-24T13:57:17;5.32;;;3.92;;
51384;SDS011;37478;55.682;37.462;2023-04-24T13:59:43;5.28;;;3.65;;
51384;SDS011;37478;55.682;37.462;2023-04-24T14:02:08;5.88;;;4.13;;
51384;SDS011;37478;55.682;37.462;2023-04-24T14:04:33;7.53;;;3.58;;
51384;SDS011;37478;55.682;37.462;2023-04-24T14:06:59;6.40;;;4.13;;
51384;SDS011;37478;55.682;37.462;2023-04-24T14:09:24;4.85;;;3.83;;
51384;SDS011;37478;55.682;37.462;2023-04-24T14:11:50;9.63;;;4.28;;
51384;SDS011;37478;55.682;37.462;2023-04-24T14:14:16;9.25;;;3.83;;
51384;SDS011;37478;55.682;37.462;2023-04-24T14:16:41;8.60;;;5.72;;
51384;SDS011;37478;55.682;37.462;2023-04-24T14:19:07;4.88;;;3.70;;
51384;SDS011;37478;55.682;37.462;2023-04-24T14:21:32;6.82;;;4.57;;
51384;SDS011;37478;55.682;37.462;2023-04-24T14:23:57;6.82;;;4.05;;
51384;SDS011;37478;55.682;37.462;2023-04-24T14:26:23;9.55;;;4.53;;
51384;SDS011;37478;55.682;37.462;2023-04-24T14:28:49;6.20;;;3.92;;
51384;SDS011;37478;55.682;37.462;2023-04-24T14:31:15;8.65;;;4.60;;